sensor_id;sensor_type;location;lat;lon;timestamp;temperature;humidity
16700;DHT22;8466;52.286;21.124;2023-07-20T00:01:28;15.80;99.90
16700;DHT22;8466;52.286;21.124;2023-07-20T00:03:56;15.80;99.90
16700;DHT22;8466;52.286;21.124;2023-07-20T00:06:26;15.80;99.90
16700;DHT22;8466;52.286;21.124;2023-07-20T00:08:55;15.80;99.90
16700;DHT22;8466;52.286;21.124;2023-07-20T00:11:27;15.80;99.90
16700;DHT22;8466;52.286;21.124;2023-07-20T00:13:56;15.90;99.90
16700;DHT22;8466;52.286;21.124;2023-07-20T00:16:26;15.90;99.90
16700;DHT22;8466;52.286;21.124;2023-07-20T00:18:54;15.90;99.90
16700;DHT22;8466;52.286;21.124;2023-07-20T00:21:23;16.00;99.90
16700;DHT22;8466;52.286;21.124;2023-07-20T00:23:52;16.00;99.90
16700;DHT22;8466;52.286;21.124;2023-07-20T00:26:21;16.10;99.90
16700;DHT22;8466;52.286;21.124;2023-07-20T00:28:51;16.10;99.90
16700;DHT22;8466;52.286;21.124;2023-07-20T00:31:19;16.10;99.90
16700;DHT22;8466;52.286;21.124;2023-07-20T00:33:50;16.20;99.90
16700;DHT22;8466;52.286;21.124;2023-07-20T00:36:19;16.20;99.90
16700;DHT22;8466;52.286;21.124;2023-07-20T00:38:48;16.00;99.90
16700;DHT22;8466;52.286;21.124;2023-07-20T00:41:17;15.90;99.90
16700;DHT22;8466;52.286;21.124;2023-07-20T00:43:45;15.90;99.90
16700;DHT22;8466;52.286;21.124;2023-07-20T00:46:14;15.90;99.90
16700;DHT22;8466;52.286;21.124;2023-07-20T00:48:43;15.90;99.90
16700;DHT22;8466;52.286;21.124;2023-07-20T00:51:13;15.90;99.90
16700;DHT22;8466;52.286;21.124;2023-07-20T00:53:42;15.90;99.90
16700;DHT22;8466;52.286;21.124;2023-07-20T00:56:11;16.00;99.90
16700;DHT22;8466;52.286;21.124;2023-07-20T00:58:40;16.00;99.90
16700;DHT22;8466;52.286;21.124;2023-07-20T01:01:09;15.90;99.90
16700;DHT22;8466;52.286;21.124;2023-07-20T01:03:39;15.90;99.90
16700;DHT22;8466;52.286;21.124;2023-07-20T01:06:18;15.80;99.90
16700;DHT22;8466;52.286;21.124;2023-07-20T01:08:57;15.80;99.90
16700;DHT22;8466;52.286;21.124;2023-07-20T01:11:35;15.80;99.90
16700;DHT22;8466;52.286;21.124;2023-07-20T01:14:08;15.80;99.90
16700;DHT22;8466;52.286;21.124;2023-07-20T01:16:38;15.70;99.90
16700;DHT22;8466;52.286;21.124;2023-07-20T01:19:07;15.70;99.90
16700;DHT22;8466;52.286;21.124;2023-07-20T01:21:42;15.60;99.90
16700;DHT22;8466;52.286;21.124;2023-07-20T01:24:44;15.60;99.90
16700;DHT22;8466;52.286;21.124;2023-07-20T01:30:45;15.50;99.90
16700;DHT22;8466;52.286;21.124;2023-07-20T01:33:18;15.50;99.90
16700;DHT22;8466;52.286;21.124;2023-07-20T01:35:51;15.50;99.90
16700;DHT22;8466;52.286;21.124;2023-07-20T01:38:21;15.40;99.90
16700;DHT22;8466;52.286;21.124;2023-07-20T01:40:52;15.50;99.90
16700;DHT22;8466;52.286;21.124;2023-07-20T01:43:21;15.50;99.90
16700;DHT22;8466;52.286;21.124;2023-07-20T01:45:50;15.50;99.90
16700;DHT22;8466;52.286;21.124;2023-07-20T01:48:20;15.50;99.90
16700;DHT22;8466;52.286;21.124;2023-07-20T01:50:49;15.60;99.90
16700;DHT22;8466;52.286;21.124;2023-07-20T01:53:18;15.70;99.90
16700;DHT22;8466;52.286;21.124;2023-07-20T01:55:47;15.70;99.90
16700;DHT22;8466;52.286;21.124;2023-07-20T01:58:15;15.70;99.90
16700;DHT22;8466;52.286;21.124;2023-07-20T02:00:44;15.80;99.90
16700;DHT22;8466;52.286;21.124;2023-07-20T02:03:13;15.80;99.90
16700;DHT22;8466;52.286;21.124;2023-07-20T02:05:43;15.90;99.90
16700;DHT22;8466;52.286;21.124;2023-07-20T02:08:12;15.90;99.90
16700;DHT22;8466;52.286;21.124;2023-07-20T02:10:41;15.90;99.90
16700;DHT22;8466;52.286;21.124;2023-07-20T02:13:10;16.00;99.90
16700;DHT22;8466;52.286;21.124;2023-07-20T02:15:39;16.00;99.90
16700;DHT22;8466;52.286;21.124;2023-07-20T02:18:08;16.10;99.90
16700;DHT22;8466;52.286;21.124;2023-07-20T02:20:37;16.20;99.90
16700;DHT22;8466;52.286;21.124;2023-07-20T02:23:08;16.20;99.90
16700;DHT22;8466;52.286;21.124;2023-07-20T02:25:37;16.20;99.90
16700;DHT22;8466;52.286;21.124;2023-07-20T02:28:07;16.20;99.90
16700;DHT22;8466;52.286;21.124;2023-07-20T02:30:38;16.20;99.90
16700;DHT22;8466;52.286;21.124;2023-07-20T02:33:07;16.20;99.90
16700;DHT22;8466;52.286;21.124;2023-07-20T02:35:36;16.20;99.90
16700;DHT22;8466;52.286;21.124;2023-07-20T02:38:06;16.30;99.90
16700;DHT22;8466;52.286;21.124;2023-07-20T02:40:35;16.30;99.90
16700;DHT22;8466;52.286;21.124;2023-07-20T02:43:04;16.30;99.90
16700;DHT22;8466;52.286;21.124;2023-07-20T02:45:33;16.30;99.90
16700;DHT22;8466;52.286;21.124;2023-07-20T02:48:02;16.30;99.90
16700;DHT22;8466;52.286;21.124;2023-07-20T02:50:30;16.30;99.90
16700;DHT22;8466;52.286;21.124;2023-07-20T02:52:59;16.40;99.90
16700;DHT22;8466;52.286;21.124;2023-07-20T02:55:29;16.30;99.90
16700;DHT22;8466;52.286;21.124;2023-07-20T02:57:58;16.30;99.90
16700;DHT22;8466;52.286;21.124;2023-07-20T03:00:27;16.30;99.90
16700;DHT22;8466;52.286;21.124;2023-07-20T03:02:56;16.30;99.90
16700;DHT22;8466;52.286;21.124;2023-07-20T03:05:25;16.30;99.90
16700;DHT22;8466;52.286;21.124;2023-07-20T03:07:55;16.30;99.90
16700;DHT22;8466;52.286;21.124;2023-07-20T03:10:24;16.40;99.90
16700;DHT22;8466;52.286;21.124;2023-07-20T03:12:54;16.50;99.90
16700;DHT22;8466;52.286;21.124;2023-07-20T03:15:23;16.40;99.90
16700;DHT22;8466;52.286;21.124;2023-07-20T03:17:52;16.40;99.90
16700;DHT22;8466;52.286;21.124;2023-07-20T03:20:21;16.40;99.90
16700;DHT22;8466;52.286;21.124;2023-07-20T03:22:50;16.40;99.90
16700;DHT22;8466;52.286;21.124;2023-07-20T03:25:18;16.40;99.90
16700;DHT22;8466;52.286;21.124;2023-07-20T03:27:48;16.40;99.90
16700;DHT22;8466;52.286;21.124;2023-07-20T03:30:19;16.40;99.90
16700;DHT22;8466;52.286;21.124;2023-07-20T03:32:47;16.40;99.90
16700;DHT22;8466;52.286;21.124;2023-07-20T03:35:16;16.30;99.90
16700;DHT22;8466;52.286;21.124;2023-07-20T03:37:45;16.40;99.90
16700;DHT22;8466;52.286;21.124;2023-07-20T03:40:14;16.40;99.90
16700;DHT22;8466;52.286;21.124;2023-07-20T03:42:43;16.40;99.90
16700;DHT22;8466;52.286;21.124;2023-07-20T03:45:12;16.40;99.90
16700;DHT22;8466;52.286;21.124;2023-07-20T03:47:43;16.50;99.90
16700;DHT22;8466;52.286;21.124;2023-07-20T03:50:12;16.40;99.90
16700;DHT22;8466;52.286;21.124;2023-07-20T03:52:41;16.40;99.90
16700;DHT22;8466;52.286;21.124;2023-07-20T03:55:10;16.40;99.90
16700;DHT22;8466;52.286;21.124;2023-07-20T03:57:39;16.40;99.90
16700;DHT22;8466;52.286;21.124;2023-07-20T04:00:09;16.40;99.90
16700;DHT22;8466;52.286;21.124;2023-07-20T04:02:38;16.40;99.90
16700;DHT22;8466;52.286;21.124;2023-07-20T04:05:08;16.30;99.90
16700;DHT22;8466;52.286;21.124;2023-07-20T04:07:37;16.30;99.90
16700;DHT22;8466;52.286;21.124;2023-07-20T04:10:07;16.30;99.90
16700;DHT22;8466;52.286;21.124;2023-07-20T04:12:36;16.30;99.90
16700;DHT22;8466;52.286;21.124;2023-07-20T04:15:05;16.20;99.90
16700;DHT22;8466;52.286;21.124;2023-07-20T04:17:34;16.20;99.90
16700;DHT22;8466;52.286;21.124;2023-07-20T04:20:04;16.20;99.90
16700;DHT22;8466;52.286;21.124;2023-07-20T04:22:35;16.20;99.90
16700;DHT22;8466;52.286;21.124;2023-07-20T04:25:04;16.20;99.90
16700;DHT22;8466;52.286;21.124;2023-07-20T04:27:33;16.10;99.90
16700;DHT22;8466;52.286;21.124;2023-07-20T04:30:02;16.10;99.90
16700;DHT22;8466;52.286;21.124;2023-07-20T04:32:31;16.20;99.90
16700;DHT22;8466;52.286;21.124;2023-07-20T04:35:06;16.30;99.90
16700;DHT22;8466;52.286;21.124;2023-07-20T04:37:37;16.30;99.90
16700;DHT22;8466;52.286;21.124;2023-07-20T04:40:15;16.30;99.90
16700;DHT22;8466;52.286;21.124;2023-07-20T04:42:44;16.30;99.90
16700;DHT22;8466;52.286;21.124;2023-07-20T04:45:13;16.40;99.90
16700;DHT22;8466;52.286;21.124;2023-07-20T04:47:41;16.30;99.90
16700;DHT22;8466;52.286;21.124;2023-07-20T04:50:10;16.40;99.90
16700;DHT22;8466;52.286;21.124;2023-07-20T04:52:40;16.40;99.90
16700;DHT22;8466;52.286;21.124;2023-07-20T04:55:09;16.40;99.90
16700;DHT22;8466;52.286;21.124;2023-07-20T04:57:38;16.50;99.90
16700;DHT22;8466;52.286;21.124;2023-07-20T05:00:08;16.50;99.90
16700;DHT22;8466;52.286;21.124;2023-07-20T05:02:38;16.70;99.90
16700;DHT22;8466;52.286;21.124;2023-07-20T05:05:08;16.80;99.90
16700;DHT22;8466;52.286;21.124;2023-07-20T05:07:36;17.00;99.90
16700;DHT22;8466;52.286;21.124;2023-07-20T05:10:07;17.10;99.90
16700;DHT22;8466;52.286;21.124;2023-07-20T05:12:36;17.20;99.90
16700;DHT22;8466;52.286;21.124;2023-07-20T05:15:06;17.30;99.90
16700;DHT22;8466;52.286;21.124;2023-07-20T05:17:35;17.40;99.90
16700;DHT22;8466;52.286;21.124;2023-07-20T05:20:05;17.60;99.90
16700;DHT22;8466;52.286;21.124;2023-07-20T05:22:37;17.80;99.90
16700;DHT22;8466;52.286;21.124;2023-07-20T05:25:09;18.00;99.90
16700;DHT22;8466;52.286;21.124;2023-07-20T05:27:39;18.10;99.90
16700;DHT22;8466;52.286;21.124;2023-07-20T05:30:09;18.20;99.90
16700;DHT22;8466;52.286;21.124;2023-07-20T05:32:38;18.30;99.90
16700;DHT22;8466;52.286;21.124;2023-07-20T05:35:08;18.30;99.90
16700;DHT22;8466;52.286;21.124;2023-07-20T05:37:39;18.30;99.90
16700;DHT22;8466;52.286;21.124;2023-07-20T05:40:10;18.30;99.90
16700;DHT22;8466;52.286;21.124;2023-07-20T05:42:40;18.20;99.90
16700;DHT22;8466;52.286;21.124;2023-07-20T05:45:09;18.10;99.90
16700;DHT22;8466;52.286;21.124;2023-07-20T05:47:38;18.00;99.90
16700;DHT22;8466;52.286;21.124;2023-07-20T05:50:08;18.00;99.90
16700;DHT22;8466;52.286;21.124;2023-07-20T05:52:37;17.90;99.90
16700;DHT22;8466;52.286;21.124;2023-07-20T05:55:08;17.80;99.90
16700;DHT22;8466;52.286;21.124;2023-07-20T05:57:37;17.70;99.90
16700;DHT22;8466;52.286;21.124;2023-07-20T06:00:10;17.70;99.90
16700;DHT22;8466;52.286;21.124;2023-07-20T06:02:41;17.70;99.90
16700;DHT22;8466;52.286;21.124;2023-07-20T06:05:11;17.70;99.90
16700;DHT22;8466;52.286;21.124;2023-07-20T06:07:39;17.70;99.90
16700;DHT22;8466;52.286;21.124;2023-07-20T06:10:10;17.70;99.90
16700;DHT22;8466;52.286;21.124;2023-07-20T06:12:39;17.70;99.90
16700;DHT22;8466;52.286;21.124;2023-07-20T06:15:25;17.80;99.90
16700;DHT22;8466;52.286;21.124;2023-07-20T06:17:55;17.90;99.90
16700;DHT22;8466;52.286;21.124;2023-07-20T06:20:25;18.10;99.90
16700;DHT22;8466;52.286;21.124;2023-07-20T06:22:54;18.20;99.90
16700;DHT22;8466;52.286;21.124;2023-07-20T06:25:24;18.40;99.90
16700;DHT22;8466;52.286;21.124;2023-07-20T06:27:55;18.50;99.90
16700;DHT22;8466;52.286;21.124;2023-07-20T06:30:24;18.70;99.90
16700;DHT22;8466;52.286;21.124;2023-07-20T06:32:53;18.80;99.90
16700;DHT22;8466;52.286;21.124;2023-07-20T06:35:22;19.00;99.90
16700;DHT22;8466;52.286;21.124;2023-07-20T06:37:51;19.00;99.90
16700;DHT22;8466;52.286;21.124;2023-07-20T06:40:21;19.00;99.90
16700;DHT22;8466;52.286;21.124;2023-07-20T06:42:54;19.00;99.90
16700;DHT22;8466;52.286;21.124;2023-07-20T06:45:26;19.00;99.90
16700;DHT22;8466;52.286;21.124;2023-07-20T06:47:54;19.00;99.90
16700;DHT22;8466;52.286;21.124;2023-07-20T06:50:23;18.90;99.90
16700;DHT22;8466;52.286;21.124;2023-07-20T06:52:54;18.90;99.90
16700;DHT22;8466;52.286;21.124;2023-07-20T06:55:25;18.80;99.90
16700;DHT22;8466;52.286;21.124;2023-07-20T06:57:55;18.80;99.90
16700;DHT22;8466;52.286;21.124;2023-07-20T07:00:25;18.80;99.90
16700;DHT22;8466;52.286;21.124;2023-07-20T07:02:54;18.80;99.90
16700;DHT22;8466;52.286;21.124;2023-07-20T07:05:23;18.80;99.90
16700;DHT22;8466;52.286;21.124;2023-07-20T07:08:03;18.80;99.90
16700;DHT22;8466;52.286;21.124;2023-07-20T07:10:32;18.90;99.90
16700;DHT22;8466;52.286;21.124;2023-07-20T07:13:03;19.00;99.90
16700;DHT22;8466;52.286;21.124;2023-07-20T07:15:33;18.90;99.90
16700;DHT22;8466;52.286;21.124;2023-07-20T07:18:05;18.80;99.90
16700;DHT22;8466;52.286;21.124;2023-07-20T07:20:33;18.70;99.90
16700;DHT22;8466;52.286;21.124;2023-07-20T07:23:04;18.40;99.90
16700;DHT22;8466;52.286;21.124;2023-07-20T07:25:34;18.30;99.90
16700;DHT22;8466;52.286;21.124;2023-07-20T07:28:05;18.20;99.90
16700;DHT22;8466;52.286;21.124;2023-07-20T07:30:34;18.10;99.90
16700;DHT22;8466;52.286;21.124;2023-07-20T07:33:03;17.90;99.90
16700;DHT22;8466;52.286;21.124;2023-07-20T07:35:32;17.90;99.90
16700;DHT22;8466;52.286;21.124;2023-07-20T07:38:01;17.80;99.90
16700;DHT22;8466;52.286;21.124;2023-07-20T07:40:50;17.70;99.90
16700;DHT22;8466;52.286;21.124;2023-07-20T07:43:20;17.60;99.90
16700;DHT22;8466;52.286;21.124;2023-07-20T07:45:49;17.50;99.90
16700;DHT22;8466;52.286;21.124;2023-07-20T07:48:18;17.40;99.90
16700;DHT22;8466;52.286;21.124;2023-07-20T07:50:47;17.40;99.90
16700;DHT22;8466;52.286;21.124;2023-07-20T07:53:17;17.40;99.90
16700;DHT22;8466;52.286;21.124;2023-07-20T07:55:48;17.30;99.90
16700;DHT22;8466;52.286;21.124;2023-07-20T07:58:17;17.40;99.90
16700;DHT22;8466;52.286;21.124;2023-07-20T08:00:47;17.20;99.90
16700;DHT22;8466;52.286;21.124;2023-07-20T08:03:16;17.10;99.90
16700;DHT22;8466;52.286;21.124;2023-07-20T08:05:46;17.10;99.90
16700;DHT22;8466;52.286;21.124;2023-07-20T08:08:15;17.10;99.90
16700;DHT22;8466;52.286;21.124;2023-07-20T08:10:44;17.00;99.90
16700;DHT22;8466;52.286;21.124;2023-07-20T08:13:13;17.10;99.90
16700;DHT22;8466;52.286;21.124;2023-07-20T08:15:51;17.00;99.90
16700;DHT22;8466;52.286;21.124;2023-07-20T08:18:20;17.00;99.90
16700;DHT22;8466;52.286;21.124;2023-07-20T08:20:49;17.10;99.90
16700;DHT22;8466;52.286;21.124;2023-07-20T08:23:18;17.10;99.90
16700;DHT22;8466;52.286;21.124;2023-07-20T08:25:47;17.10;99.90
16700;DHT22;8466;52.286;21.124;2023-07-20T08:28:16;17.20;99.90
16700;DHT22;8466;52.286;21.124;2023-07-20T08:30:46;17.30;99.90
16700;DHT22;8466;52.286;21.124;2023-07-20T08:33:17;17.30;99.90
16700;DHT22;8466;52.286;21.124;2023-07-20T08:35:47;17.30;99.90
16700;DHT22;8466;52.286;21.124;2023-07-20T08:38:16;17.30;99.90
16700;DHT22;8466;52.286;21.124;2023-07-20T08:40:45;17.40;99.90
16700;DHT22;8466;52.286;21.124;2023-07-20T08:43:15;17.40;99.90
16700;DHT22;8466;52.286;21.124;2023-07-20T08:45:46;17.40;99.90
16700;DHT22;8466;52.286;21.124;2023-07-20T08:48:18;17.40;99.90
16700;DHT22;8466;52.286;21.124;2023-07-20T08:50:50;17.30;99.90
16700;DHT22;8466;52.286;21.124;2023-07-20T08:53:20;17.20;99.90
16700;DHT22;8466;52.286;21.124;2023-07-20T08:55:51;17.20;99.90
16700;DHT22;8466;52.286;21.124;2023-07-20T08:58:20;17.10;99.90
16700;DHT22;8466;52.286;21.124;2023-07-20T09:00:52;17.10;99.90
16700;DHT22;8466;52.286;21.124;2023-07-20T09:03:23;17.10;99.90
16700;DHT22;8466;52.286;21.124;2023-07-20T09:06:01;17.30;99.90
16700;DHT22;8466;52.286;21.124;2023-07-20T09:08:30;17.50;99.90
16700;DHT22;8466;52.286;21.124;2023-07-20T09:11:00;17.60;99.90
16700;DHT22;8466;52.286;21.124;2023-07-20T09:13:29;17.80;99.90
16700;DHT22;8466;52.286;21.124;2023-07-20T09:15:58;17.90;99.90
16700;DHT22;8466;52.286;21.124;2023-07-20T09:18:30;18.10;99.90
16700;DHT22;8466;52.286;21.124;2023-07-20T09:21:02;18.40;99.90
16700;DHT22;8466;52.286;21.124;2023-07-20T09:23:32;18.40;99.90
16700;DHT22;8466;52.286;21.124;2023-07-20T09:26:01;18.40;99.90
16700;DHT22;8466;52.286;21.124;2023-07-20T09:28:41;18.30;99.90
16700;DHT22;8466;52.286;21.124;2023-07-20T09:31:17;18.20;99.90
16700;DHT22;8466;52.286;21.124;2023-07-20T09:33:49;18.20;99.90
16700;DHT22;8466;52.286;21.124;2023-07-20T09:36:21;18.30;99.90
16700;DHT22;8466;52.286;21.124;2023-07-20T09:39:10;18.60;99.90
16700;DHT22;8466;52.286;21.124;2023-07-20T09:41:40;18.90;99.90
16700;DHT22;8466;52.286;21.124;2023-07-20T09:44:14;19.30;99.90
16700;DHT22;8466;52.286;21.124;2023-07-20T09:46:47;19.60;99.90
16700;DHT22;8466;52.286;21.124;2023-07-20T09:49:20;19.90;99.90
16700;DHT22;8466;52.286;21.124;2023-07-20T09:51:54;20.10;99.90
16700;DHT22;8466;52.286;21.124;2023-07-20T09:54:24;20.40;99.90
16700;DHT22;8466;52.286;21.124;2023-07-20T09:56:56;20.80;99.90
16700;DHT22;8466;52.286;21.124;2023-07-20T09:59:25;21.10;99.90
16700;DHT22;8466;52.286;21.124;2023-07-20T10:01:58;21.50;99.90
16700;DHT22;8466;52.286;21.124;2023-07-20T10:04:29;21.70;99.90
16700;DHT22;8466;52.286;21.124;2023-07-20T10:07:05;21.80;99.90
16700;DHT22;8466;52.286;21.124;2023-07-20T10:09:39;22.00;99.90
16700;DHT22;8466;52.286;21.124;2023-07-20T10:12:10;22.00;99.90
16700;DHT22;8466;52.286;21.124;2023-07-20T10:14:52;22.00;99.90
16700;DHT22;8466;52.286;21.124;2023-07-20T10:17:21;22.10;99.90
16700;DHT22;8466;52.286;21.124;2023-07-20T10:19:56;22.20;99.90
16700;DHT22;8466;52.286;21.124;2023-07-20T10:22:26;22.30;99.90
16700;DHT22;8466;52.286;21.124;2023-07-20T10:24:56;22.30;99.90
16700;DHT22;8466;52.286;21.124;2023-07-20T10:27:27;22.30;99.90
16700;DHT22;8466;52.286;21.124;2023-07-20T10:29:57;22.20;99.90
16700;DHT22;8466;52.286;21.124;2023-07-20T10:32:29;22.00;99.90
16700;DHT22;8466;52.286;21.124;2023-07-20T10:34:59;21.80;99.90
16700;DHT22;8466;52.286;21.124;2023-07-20T10:37:47;21.70;99.90
16700;DHT22;8466;52.286;21.124;2023-07-20T10:40:40;21.60;99.90
16700;DHT22;8466;52.286;21.124;2023-07-20T10:43:10;21.50;99.90
16700;DHT22;8466;52.286;21.124;2023-07-20T10:45:48;21.40;99.90
16700;DHT22;8466;52.286;21.124;2023-07-20T10:48:19;21.40;99.90
16700;DHT22;8466;52.286;21.124;2023-07-20T10:51:13;21.50;99.90
16700;DHT22;8466;52.286;21.124;2023-07-20T10:53:43;21.50;99.90
16700;DHT22;8466;52.286;21.124;2023-07-20T10:56:13;21.60;99.90
16700;DHT22;8466;52.286;21.124;2023-07-20T10:58:43;21.80;99.90
16700;DHT22;8466;52.286;21.124;2023-07-20T11:01:14;22.00;99.90
16700;DHT22;8466;52.286;21.124;2023-07-20T11:03:49;22.30;99.90
16700;DHT22;8466;52.286;21.124;2023-07-20T11:06:32;22.70;99.90
16700;DHT22;8466;52.286;21.124;2023-07-20T11:09:08;22.80;99.90
16700;DHT22;8466;52.286;21.124;2023-07-20T11:11:39;22.80;99.90
16700;DHT22;8466;52.286;21.124;2023-07-20T11:14:22;22.80;99.90
16700;DHT22;8466;52.286;21.124;2023-07-20T11:16:52;22.60;99.90
16700;DHT22;8466;52.286;21.124;2023-07-20T11:19:25;22.70;99.90
16700;DHT22;8466;52.286;21.124;2023-07-20T11:21:59;22.90;99.90
16700;DHT22;8466;52.286;21.124;2023-07-20T11:24:31;23.10;99.90
16700;DHT22;8466;52.286;21.124;2023-07-20T11:27:00;23.20;99.90
16700;DHT22;8466;52.286;21.124;2023-07-20T11:29:30;23.10;99.90
16700;DHT22;8466;52.286;21.124;2023-07-20T11:32:01;23.10;99.90
16700;DHT22;8466;52.286;21.124;2023-07-20T11:34:32;23.10;99.90
16700;DHT22;8466;52.286;21.124;2023-07-20T11:37:05;23.00;99.90
16700;DHT22;8466;52.286;21.124;2023-07-20T11:39:37;22.70;99.90
16700;DHT22;8466;52.286;21.124;2023-07-20T11:42:06;22.30;99.90
16700;DHT22;8466;52.286;21.124;2023-07-20T11:44:35;22.00;99.90
16700;DHT22;8466;52.286;21.124;2023-07-20T11:47:05;21.70;99.90
16700;DHT22;8466;52.286;21.124;2023-07-20T11:49:36;21.60;99.90
16700;DHT22;8466;52.286;21.124;2023-07-20T11:52:08;21.60;99.90
16700;DHT22;8466;52.286;21.124;2023-07-20T11:54:39;21.80;99.90
16700;DHT22;8466;52.286;21.124;2023-07-20T11:57:16;22.00;99.90
16700;DHT22;8466;52.286;21.124;2023-07-20T11:59:53;22.10;99.90
16700;DHT22;8466;52.286;21.124;2023-07-20T12:02:27;22.40;99.90
16700;DHT22;8466;52.286;21.124;2023-07-20T12:04:57;22.70;99.90
16700;DHT22;8466;52.286;21.124;2023-07-20T12:07:29;23.00;99.90
16700;DHT22;8466;52.286;21.124;2023-07-20T12:10:08;23.40;99.90
16700;DHT22;8466;52.286;21.124;2023-07-20T12:12:43;23.80;99.90
16700;DHT22;8466;52.286;21.124;2023-07-20T12:15:14;23.90;99.90
16700;DHT22;8466;52.286;21.124;2023-07-20T12:17:44;23.80;99.90
16700;DHT22;8466;52.286;21.124;2023-07-20T12:20:13;23.50;99.90
16700;DHT22;8466;52.286;21.124;2023-07-20T12:22:57;23.30;99.90
16700;DHT22;8466;52.286;21.124;2023-07-20T12:25:38;23.10;99.90
16700;DHT22;8466;52.286;21.124;2023-07-20T12:28:09;23.00;99.90
16700;DHT22;8466;52.286;21.124;2023-07-20T12:30:39;23.20;99.90
16700;DHT22;8466;52.286;21.124;2023-07-20T12:33:08;23.40;99.90
16700;DHT22;8466;52.286;21.124;2023-07-20T12:35:38;23.50;99.90
16700;DHT22;8466;52.286;21.124;2023-07-20T12:38:09;23.60;99.90
16700;DHT22;8466;52.286;21.124;2023-07-20T12:40:38;23.90;99.90
16700;DHT22;8466;52.286;21.124;2023-07-20T12:43:08;24.20;99.90
16700;DHT22;8466;52.286;21.124;2023-07-20T12:45:36;24.50;99.90
16700;DHT22;8466;52.286;21.124;2023-07-20T12:48:05;24.60;99.50
16700;DHT22;8466;52.286;21.124;2023-07-20T12:50:34;24.50;99.30
16700;DHT22;8466;52.286;21.124;2023-07-20T12:53:03;24.30;99.50
16700;DHT22;8466;52.286;21.124;2023-07-20T12:55:33;24.10;99.30
16700;DHT22;8466;52.286;21.124;2023-07-20T12:58:02;24.00;99.40
16700;DHT22;8466;52.286;21.124;2023-07-20T13:00:31;24.00;99.90
16700;DHT22;8466;52.286;21.124;2023-07-20T13:03:00;24.00;99.90
16700;DHT22;8466;52.286;21.124;2023-07-20T13:05:35;24.00;99.90
16700;DHT22;8466;52.286;21.124;2023-07-20T13:08:06;24.00;99.90
16700;DHT22;8466;52.286;21.124;2023-07-20T13:10:40;24.10;99.90
16700;DHT22;8466;52.286;21.124;2023-07-20T13:13:09;24.20;99.90
16700;DHT22;8466;52.286;21.124;2023-07-20T13:15:42;24.40;99.90
16700;DHT22;8466;52.286;21.124;2023-07-20T13:18:11;24.50;99.90
16700;DHT22;8466;52.286;21.124;2023-07-20T13:20:40;24.60;99.50
16700;DHT22;8466;52.286;21.124;2023-07-20T13:23:09;24.70;99.10
16700;DHT22;8466;52.286;21.124;2023-07-20T13:25:39;24.70;99.20
16700;DHT22;8466;52.286;21.124;2023-07-20T13:28:08;24.80;99.60
16700;DHT22;8466;52.286;21.124;2023-07-20T13:30:37;24.80;99.90
16700;DHT22;8466;52.286;21.124;2023-07-20T13:33:07;24.80;99.20
16700;DHT22;8466;52.286;21.124;2023-07-20T13:35:43;24.70;99.90
16700;DHT22;8466;52.286;21.124;2023-07-20T13:38:16;24.60;99.90
16700;DHT22;8466;52.286;21.124;2023-07-20T13:40:47;24.60;99.90
16700;DHT22;8466;52.286;21.124;2023-07-20T13:43:15;24.60;99.90
16700;DHT22;8466;52.286;21.124;2023-07-20T13:45:44;24.70;99.60
16700;DHT22;8466;52.286;21.124;2023-07-20T13:48:14;25.00;99.90
16700;DHT22;8466;52.286;21.124;2023-07-20T13:50:45;25.10;99.40
16700;DHT22;8466;52.286;21.124;2023-07-20T13:53:26;25.00;99.60
16700;DHT22;8466;52.286;21.124;2023-07-20T13:56:00;24.70;99.50
16700;DHT22;8466;52.286;21.124;2023-07-20T13:58:34;24.60;99.80
16700;DHT22;8466;52.286;21.124;2023-07-20T14:01:07;24.70;99.60
16700;DHT22;8466;52.286;21.124;2023-07-20T14:03:36;24.80;99.60
16700;DHT22;8466;52.286;21.124;2023-07-20T14:06:05;25.00;99.00
16700;DHT22;8466;52.286;21.124;2023-07-20T14:08:37;25.00;99.40
16700;DHT22;8466;52.286;21.124;2023-07-20T14:11:08;24.90;99.60
16700;DHT22;8466;52.286;21.124;2023-07-20T14:13:39;24.70;98.80
16700;DHT22;8466;52.286;21.124;2023-07-20T14:16:14;24.50;99.80
16700;DHT22;8466;52.286;21.124;2023-07-20T14:18:43;24.30;99.90
16700;DHT22;8466;52.286;21.124;2023-07-20T14:21:16;24.20;99.90
16700;DHT22;8466;52.286;21.124;2023-07-20T14:23:45;24.00;99.90
16700;DHT22;8466;52.286;21.124;2023-07-20T14:26:16;23.90;99.90
16700;DHT22;8466;52.286;21.124;2023-07-20T14:28:49;23.70;99.90
16700;DHT22;8466;52.286;21.124;2023-07-20T14:31:18;23.50;99.90
16700;DHT22;8466;52.286;21.124;2023-07-20T14:33:47;23.40;99.90
16700;DHT22;8466;52.286;21.124;2023-07-20T14:36:19;23.20;99.90
16700;DHT22;8466;52.286;21.124;2023-07-20T14:38:50;23.10;99.90
16700;DHT22;8466;52.286;21.124;2023-07-20T14:41:20;23.20;99.90
16700;DHT22;8466;52.286;21.124;2023-07-20T14:43:50;23.20;99.90
16700;DHT22;8466;52.286;21.124;2023-07-20T14:46:19;23.10;99.90
16700;DHT22;8466;52.286;21.124;2023-07-20T14:48:48;22.90;99.90
16700;DHT22;8466;52.286;21.124;2023-07-20T14:51:19;22.70;99.90
16700;DHT22;8466;52.286;21.124;2023-07-20T14:53:48;22.60;99.90
16700;DHT22;8466;52.286;21.124;2023-07-20T14:56:20;22.50;99.90
16700;DHT22;8466;52.286;21.124;2023-07-20T14:58:49;22.60;99.90
16700;DHT22;8466;52.286;21.124;2023-07-20T15:01:18;22.60;99.90
16700;DHT22;8466;52.286;21.124;2023-07-20T15:03:49;22.30;99.90
16700;DHT22;8466;52.286;21.124;2023-07-20T15:06:24;22.10;99.90
16700;DHT22;8466;52.286;21.124;2023-07-20T15:08:53;21.90;99.90
16700;DHT22;8466;52.286;21.124;2023-07-20T15:11:24;21.70;99.90
16700;DHT22;8466;52.286;21.124;2023-07-20T15:13:53;21.80;99.90
16700;DHT22;8466;52.286;21.124;2023-07-20T15:16:23;22.50;99.90
16700;DHT22;8466;52.286;21.124;2023-07-20T15:18:52;23.20;99.90
16700;DHT22;8466;52.286;21.124;2023-07-20T15:21:21;23.90;99.90
16700;DHT22;8466;52.286;21.124;2023-07-20T15:23:52;24.40;99.90
16700;DHT22;8466;52.286;21.124;2023-07-20T15:26:21;24.70;97.60
16700;DHT22;8466;52.286;21.124;2023-07-20T15:28:52;25.00;96.60
16700;DHT22;8466;52.286;21.124;2023-07-20T15:31:21;25.30;95.00
16700;DHT22;8466;52.286;21.124;2023-07-20T15:34:10;25.20;94.20
16700;DHT22;8466;52.286;21.124;2023-07-20T15:36:41;25.40;93.10
16700;DHT22;8466;52.286;21.124;2023-07-20T15:39:10;25.60;92.50
16700;DHT22;8466;52.286;21.124;2023-07-20T15:41:39;25.70;91.90
16700;DHT22;8466;52.286;21.124;2023-07-20T15:44:09;25.50;91.30
16700;DHT22;8466;52.286;21.124;2023-07-20T15:46:47;25.10;91.00
16700;DHT22;8466;52.286;21.124;2023-07-20T15:49:17;24.60;91.70
16700;DHT22;8466;52.286;21.124;2023-07-20T15:51:45;24.10;90.40
16700;DHT22;8466;52.286;21.124;2023-07-20T15:54:15;23.50;90.70
16700;DHT22;8466;52.286;21.124;2023-07-20T15:56:44;23.10;93.00